createdAt,value
2023-09-24T00:00:10.421Z,9.70
2023-09-24T00:02:37.293Z,9.60
2023-09-24T00:05:04.729Z,9.60
2023-09-24T00:07:31.552Z,9.60
2023-09-24T00:09:59.742Z,9.50
2023-09-24T00:12:26.668Z,9.50
2023-09-24T00:14:53.528Z,9.50
2023-09-24T00:17:20.551Z,9.50
2023-09-24T00:19:47.347Z,9.50
2023-09-24T00:22:14.088Z,9.50
2023-09-24T00:24:40.856Z,9.60
2023-09-24T00:27:08.910Z,9.60
2023-09-24T00:29:35.806Z,9.70
2023-09-24T00:32:04.471Z,9.60
2023-09-24T00:34:31.834Z,9.60
2023-09-24T00:36:58.571Z,9.60
2023-09-24T00:39:25.293Z,9.60
2023-09-24T00:41:52.096Z,9.50
2023-09-24T00:44:20.971Z,9.50
2023-09-24T00:46:47.802Z,9.50
2023-09-24T00:49:15.625Z,9.40
2023-09-24T00:51:42.853Z,9.40
2023-09-24T00:54:11.530Z,9.30
2023-09-24T00:56:38.897Z,9.20
2023-09-24T00:59:05.936Z,9.30
2023-09-24T01:01:34.190Z,9.30
2023-09-24T01:04:02.997Z,9.30
2023-09-24T01:06:29.871Z,9.30
2023-09-24T01:08:56.689Z,9.30
2023-09-24T01:11:23.917Z,9.30
2023-09-24T01:13:50.739Z,9.30
2023-09-24T01:16:17.560Z,9.30
2023-09-24T01:18:45.845Z,9.40
2023-09-24T01:21:14.507Z,9.40
2023-09-24T01:23:43.956Z,9.30
2023-09-24T01:26:10.856Z,9.30
2023-09-24T01:28:37.859Z,9.20
2023-09-24T01:31:04.677Z,9.20
2023-09-24T01:33:31.813Z,9.10
2023-09-24T01:35:58.906Z,9.10
2023-09-24T01:38:26.177Z,9.10
2023-09-24T01:40:54.415Z,9.00
2023-09-24T01:43:21.327Z,9.00
2023-09-24T01:45:48.030Z,9.00
2023-09-24T01:48:15.439Z,9.00
2023-09-24T01:50:42.493Z,8.90
2023-09-24T01:53:09.312Z,8.90
2023-09-24T01:55:36.435Z,8.80
2023-09-24T01:58:04.665Z,8.80
2023-09-24T02:00:31.961Z,8.70
2023-09-24T02:03:00.190Z,8.60
2023-09-24T02:05:32.208Z,8.60
2023-09-24T02:07:58.986Z,8.50
2023-09-24T02:10:25.759Z,8.60
2023-09-24T02:12:52.698Z,8.50
2023-09-24T02:15:21.393Z,8.40
2023-09-24T02:17:48.637Z,8.40
2023-09-24T02:20:18.029Z,8.30
2023-09-24T02:22:46.007Z,8.30
2023-09-24T02:25:12.901Z,8.30
2023-09-24T02:27:40.140Z,8.30
2023-09-24T02:30:08.482Z,8.40
2023-09-24T02:32:36.752Z,8.40
2023-09-24T02:35:03.961Z,8.40
2023-09-24T02:37:30.734Z,8.50
2023-09-24T02:39:57.536Z,8.40
2023-09-24T02:42:24.306Z,8.30
2023-09-24T02:44:51.115Z,8.30
2023-09-24T02:47:18.013Z,8.30
2023-09-24T02:49:46.277Z,8.30
2023-09-24T02:52:13.004Z,8.40
2023-09-24T02:54:39.713Z,8.40
2023-09-24T02:57:06.500Z,8.30
2023-09-24T02:59:33.424Z,8.30
2023-09-24T03:02:00.203Z,8.20
2023-09-24T03:04:27.128Z,8.20
2023-09-24T03:06:55.372Z,8.20
2023-09-24T03:09:22.233Z,8.20
2023-09-24T03:11:49.045Z,8.20
2023-09-24T03:14:15.859Z,8.20
2023-09-24T03:16:42.726Z,8.20
2023-09-24T03:19:09.479Z,8.20
2023-09-24T03:21:36.270Z,8.20
2023-09-24T03:24:05.016Z,8.20
2023-09-24T03:26:31.913Z,8.20
2023-09-24T03:28:58.718Z,8.20
2023-09-24T03:31:25.521Z,8.10
2023-09-24T03:33:52.498Z,8.10
2023-09-24T03:36:19.387Z,8.10
2023-09-24T03:38:46.327Z,8.10
2023-09-24T03:41:14.535Z,8.10
2023-09-24T03:43:41.345Z,8.10
2023-09-24T03:46:08.138Z,8.00
2023-09-24T03:48:34.962Z,8.00
2023-09-24T03:51:01.838Z,8.00
2023-09-24T03:53:28.623Z,8.00
2023-09-24T03:55:55.409Z,8.00
2023-09-24T03:58:23.472Z,8.00
2023-09-24T04:00:50.266Z,7.90
2023-09-24T04:03:17.146Z,7.90
2023-09-24T04:05:44.101Z,7.90
2023-09-24T04:08:10.868Z,7.90
2023-09-24T04:10:37.651Z,7.90
2023-09-24T04:13:04.520Z,7.90
2023-09-24T04:15:33.487Z,7.90
2023-09-24T04:18:01.392Z,7.90
2023-09-24T04:20:29.159Z,7.80
2023-09-24T04:22:57.843Z,7.80
2023-09-24T04:25:24.806Z,7.80
2023-09-24T04:27:51.841Z,7.80
2023-09-24T04:30:18.796Z,7.80
2023-09-24T04:32:49.664Z,7.90
2023-09-24T04:35:16.754Z,7.90
2023-09-24T04:37:43.556Z,7.90
2023-09-24T04:40:10.930Z,8.00
2023-09-24T04:43:01.820Z,8.00
2023-09-24T04:45:28.614Z,8.00
2023-09-24T04:47:55.461Z,8.00
2023-09-24T04:50:22.383Z,8.00
2023-09-24T04:52:49.681Z,8.00
2023-09-24T04:55:17.242Z,7.80
2023-09-24T04:57:44.751Z,7.80
2023-09-24T05:00:14.456Z,7.70
2023-09-24T05:02:41.373Z,7.50
2023-09-24T05:05:09.058Z,7.50
2023-09-24T05:07:35.904Z,7.40
2023-09-24T05:10:02.714Z,7.40
2023-09-24T05:12:29.563Z,7.40
2023-09-24T05:14:56.400Z,7.40
2023-09-24T05:17:24.516Z,7.40
2023-09-24T05:19:51.302Z,7.50
2023-09-24T05:22:18.054Z,7.50
2023-09-24T05:24:46.271Z,7.60
2023-09-24T05:27:15.523Z,7.70
2023-09-24T05:29:42.304Z,7.70
2023-09-24T05:32:09.443Z,7.70
2023-09-24T05:34:37.646Z,7.60
2023-09-24T05:37:04.457Z,7.60
2023-09-24T05:39:31.229Z,7.50
2023-09-24T05:41:58.033Z,7.60
2023-09-24T05:44:24.810Z,7.60
2023-09-24T05:46:51.625Z,7.70
2023-09-24T05:49:18.367Z,7.80
2023-09-24T05:51:47.099Z,7.80
2023-09-24T05:54:13.953Z,7.90
2023-09-24T05:56:40.847Z,8.00
2023-09-24T05:59:07.577Z,8.00
2023-09-24T06:01:34.370Z,8.00
2023-09-24T06:04:01.320Z,8.10
2023-09-24T06:06:28.301Z,8.10
2023-09-24T06:08:56.447Z,8.10
2023-09-24T06:11:23.290Z,8.20
2023-09-24T06:13:50.267Z,8.30
2023-09-24T06:16:17.240Z,8.40
2023-09-24T06:18:44.231Z,8.50
2023-09-24T06:21:14.764Z,8.60
2023-09-24T06:23:41.566Z,8.70
2023-09-24T06:26:09.710Z,8.90
2023-09-24T06:28:36.522Z,8.90
2023-09-24T06:31:04.993Z,9.00
2023-09-24T06:33:31.987Z,9.10
2023-09-24T06:36:01.682Z,9.20
2023-09-24T06:38:28.526Z,9.30
2023-09-24T06:40:59.710Z,9.50
2023-09-24T06:43:27.885Z,9.70
2023-09-24T06:45:54.926Z,9.80
2023-09-24T06:48:22.517Z,9.90
2023-09-24T06:50:49.464Z,9.90
2023-09-24T06:53:16.324Z,10.10
2023-09-24T06:55:43.365Z,10.10
2023-09-24T06:58:10.160Z,10.20
2023-09-24T07:00:38.463Z,10.20
2023-09-24T07:03:05.423Z,10.30
2023-09-24T07:05:32.232Z,10.40
2023-09-24T07:07:59.118Z,10.50
2023-09-24T07:10:25.890Z,10.70
2023-09-24T07:12:52.922Z,11.00
2023-09-24T07:15:20.377Z,11.10
2023-09-24T07:17:48.619Z,11.40
2023-09-24T07:20:15.500Z,11.60
2023-09-24T07:22:42.289Z,11.70
2023-09-24T07:25:09.729Z,12.10
2023-09-24T07:27:36.485Z,12.30
2023-09-24T07:30:04.014Z,12.50
2023-09-24T07:32:31.009Z,12.90
2023-09-24T07:34:59.176Z,13.10
2023-09-24T07:37:25.978Z,13.30
2023-09-24T07:39:53.033Z,13.60
2023-09-24T07:42:19.849Z,13.80
2023-09-24T07:44:46.672Z,14.20
2023-09-24T07:47:13.439Z,14.40
2023-09-24T07:49:40.152Z,14.20
2023-09-24T07:52:08.263Z,14.10
2023-09-24T07:54:35.079Z,13.90
2023-09-24T07:57:01.900Z,13.80
2023-09-24T07:59:29.599Z,13.80
2023-09-24T08:01:56.456Z,13.70
2023-09-24T08:04:23.334Z,13.80
2023-09-24T08:06:50.324Z,13.80
2023-09-24T08:09:27.017Z,13.80
2023-09-24T08:11:55.059Z,13.90
2023-09-24T08:14:21.990Z,14.10
2023-09-24T08:16:49.047Z,14.40
2023-09-24T08:19:16.140Z,14.60
2023-09-24T08:21:42.901Z,14.70
2023-09-24T08:24:09.920Z,14.70
2023-09-24T08:26:38.250Z,14.80
2023-09-24T08:29:05.428Z,14.70
2023-09-24T08:31:32.445Z,14.80
2023-09-24T08:33:59.430Z,15.00
2023-09-24T08:36:26.235Z,15.20
2023-09-24T08:38:53.356Z,15.10
2023-09-24T08:41:20.214Z,15.20
2023-09-24T08:43:49.918Z,15.40
2023-09-24T08:46:16.955Z,15.60
2023-09-24T08:48:43.898Z,15.70
2023-09-24T08:51:11.740Z,15.80
2023-09-24T08:53:39.033Z,15.90
2023-09-24T08:56:06.158Z,15.90
2023-09-24T08:58:32.979Z,15.90
2023-09-24T09:01:01.710Z,16.00
2023-09-24T09:03:28.865Z,16.10
2023-09-24T09:05:55.874Z,16.30
2023-09-24T09:08:22.652Z,16.60
2023-09-24T09:10:50.250Z,16.40
2023-09-24T09:13:17.711Z,16.30
2023-09-24T09:15:44.792Z,16.30
2023-09-24T09:18:23.960Z,16.50
2023-09-24T09:20:52.553Z,16.70
2023-09-24T09:23:31.044Z,16.60
2023-09-24T09:25:57.954Z,16.40
2023-09-24T09:28:26.266Z,16.50
2023-09-24T09:31:03.818Z,16.90
2023-09-24T09:33:33.945Z,17.20
2023-09-24T09:36:00.964Z,17.40
2023-09-24T09:38:28.417Z,17.30
2023-09-24T09:40:56.937Z,17.30
2023-09-24T09:43:25.008Z,17.40
2023-09-24T09:45:52.765Z,17.20
2023-09-24T09:48:29.832Z,17.20
2023-09-24T09:51:01.990Z,17.20
2023-09-24T09:53:31.855Z,17.40
2023-09-24T09:56:01.008Z,17.60
2023-09-24T09:58:30.596Z,17.80
2023-09-24T10:00:57.410Z,17.90
2023-09-24T10:03:25.735Z,17.90
2023-09-24T10:05:53.745Z,17.90
2023-09-24T10:08:38.511Z,18.10
2023-09-24T10:11:05.535Z,18.20
2023-09-24T10:13:46.711Z,18.10
2023-09-24T10:16:36.150Z,18.00
2023-09-24T10:19:05.196Z,18.00
2023-09-24T10:21:33.551Z,18.10
2023-09-24T10:24:48.708Z,18.50
2023-09-24T10:27:21.620Z,19.00
2023-09-24T10:30:01.313Z,19.00
2023-09-24T10:32:28.212Z,19.10
2023-09-24T10:35:11.576Z,19.10
2023-09-24T10:38:00.569Z,19.30
2023-09-24T10:40:27.687Z,19.10
2023-09-24T10:43:20.113Z,19.00
2023-09-24T10:45:47.728Z,19.00
2023-09-24T10:48:15.101Z,19.20
2023-09-24T10:50:42.546Z,19.30
2023-09-24T10:53:09.471Z,19.30
2023-09-24T10:55:40.343Z,19.30
2023-09-24T10:58:11.028Z,19.70
2023-09-24T11:00:40.142Z,19.40
2023-09-24T11:03:08.801Z,19.70
2023-09-24T11:05:36.043Z,19.80
2023-09-24T11:08:03.330Z,19.70
2023-09-24T11:10:30.189Z,19.70
2023-09-24T11:12:58.096Z,20.00
2023-09-24T11:15:26.234Z,19.80
2023-09-24T11:17:54.597Z,19.70
2023-09-24T11:20:21.414Z,19.70
2023-09-24T11:22:56.341Z,19.90
2023-09-24T11:25:23.413Z,19.80
2023-09-24T11:27:51.414Z,19.70
2023-09-24T11:30:19.707Z,19.90
2023-09-24T11:32:47.826Z,20.10
2023-09-24T11:35:17.373Z,20.00
2023-09-24T11:37:52.351Z,19.80
2023-09-24T11:40:26.838Z,19.80
2023-09-24T11:42:55.179Z,19.80
2023-09-24T11:45:42.218Z,19.70
2023-09-24T11:48:11.084Z,19.60
2023-09-24T11:50:40.298Z,19.70
2023-09-24T11:53:07.555Z,19.70
2023-09-24T11:55:34.676Z,19.60
2023-09-24T11:58:01.630Z,19.80
2023-09-24T12:00:28.413Z,19.80
2023-09-24T12:02:55.657Z,19.90
2023-09-24T12:05:33.004Z,20.20
2023-09-24T12:08:03.352Z,20.30
2023-09-24T12:10:30.306Z,20.40
2023-09-24T12:12:57.250Z,20.30
2023-09-24T12:15:24.053Z,20.20
2023-09-24T12:17:50.921Z,20.30
2023-09-24T12:20:17.903Z,20.20
2023-09-24T12:22:44.657Z,20.40
2023-09-24T12:25:12.944Z,20.60
2023-09-24T12:27:40.308Z,20.40
2023-09-24T12:30:09.572Z,20.10
2023-09-24T12:32:36.528Z,20.30
2023-09-24T12:35:03.487Z,20.30
2023-09-24T12:37:33.173Z,20.50
2023-09-24T12:39:59.857Z,20.10
2023-09-24T12:42:27.971Z,20.20
2023-09-24T12:44:54.905Z,20.30
2023-09-24T12:47:21.718Z,20.10
2023-09-24T12:49:48.788Z,20.40
2023-09-24T12:52:15.540Z,20.30
2023-09-24T12:54:42.282Z,20.60
2023-09-24T12:57:09.186Z,20.60
2023-09-24T12:59:37.318Z,20.50
2023-09-24T13:02:04.182Z,20.50
2023-09-24T13:04:31.234Z,20.40
2023-09-24T13:06:58.203Z,20.50
2023-09-24T13:09:24.973Z,20.70
2023-09-24T13:11:51.950Z,20.70
2023-09-24T13:14:18.792Z,20.80
2023-09-24T13:16:46.934Z,21.00
2023-09-24T13:19:16.408Z,21.00
2023-09-24T13:21:43.453Z,21.00
2023-09-24T13:24:10.656Z,21.20
2023-09-24T13:26:37.888Z,21.30
2023-09-24T13:29:05.173Z,21.30
2023-09-24T13:31:31.973Z,21.30
2023-09-24T13:34:00.314Z,20.70
2023-09-24T13:36:27.134Z,20.60
2023-09-24T13:38:53.925Z,20.80
2023-09-24T13:41:20.742Z,21.00
2023-09-24T13:43:47.690Z,20.90
2023-09-24T13:46:14.843Z,20.90
2023-09-24T13:48:41.621Z,20.80
2023-09-24T13:51:09.849Z,20.70
2023-09-24T13:53:36.678Z,20.40
2023-09-24T13:56:03.439Z,20.50
2023-09-24T13:58:30.227Z,20.80
2023-09-24T14:00:59.927Z,21.00
2023-09-24T14:03:26.869Z,21.00
2023-09-24T14:05:56.707Z,21.10
2023-09-24T14:08:25.033Z,21.20
2023-09-24T14:10:51.788Z,21.20
2023-09-24T14:13:18.579Z,21.30
2023-09-24T14:15:45.345Z,21.10
2023-09-24T14:18:14.895Z,21.00
2023-09-24T14:20:42.364Z,21.00
2023-09-24T14:23:09.157Z,20.90
2023-09-24T14:25:39.789Z,20.70
2023-09-24T14:28:06.872Z,20.80
2023-09-24T14:30:36.058Z,20.90
2023-09-24T14:33:03.247Z,20.80
2023-09-24T14:35:30.340Z,20.80
2023-09-24T14:37:57.055Z,20.90
2023-09-24T14:40:23.932Z,20.70
2023-09-24T14:42:52.028Z,20.70
2023-09-24T14:45:19.033Z,20.80
2023-09-24T14:47:45.984Z,20.90
2023-09-24T14:50:12.773Z,20.90
2023-09-24T14:52:39.570Z,21.00
2023-09-24T14:55:07.236Z,20.90
2023-09-24T14:57:33.982Z,20.80
2023-09-24T15:00:02.082Z,20.70
2023-09-24T15:02:29.252Z,20.50
2023-09-24T15:04:56.144Z,20.50
2023-09-24T15:07:22.954Z,20.60
2023-09-24T15:09:49.751Z,20.60
2023-09-24T15:12:16.981Z,20.60
2023-09-24T15:14:43.774Z,20.40
2023-09-24T15:17:11.872Z,20.30
2023-09-24T15:19:38.593Z,20.20
2023-09-24T15:22:05.809Z,20.20
2023-09-24T15:24:32.649Z,20.30
2023-09-24T15:26:59.502Z,20.30
2023-09-24T15:29:27.620Z,20.50
2023-09-24T15:31:55.446Z,20.60
2023-09-24T15:34:23.730Z,20.70
2023-09-24T15:36:52.063Z,20.60
2023-09-24T15:39:18.837Z,20.60
2023-09-24T15:41:45.701Z,20.60
2023-09-24T15:44:12.540Z,20.60
2023-09-24T15:46:39.382Z,20.50
2023-09-24T15:49:06.227Z,20.40
2023-09-24T15:51:34.414Z,20.40
2023-09-24T15:54:01.305Z,20.30
2023-09-24T15:56:28.159Z,20.30
2023-09-24T15:58:54.922Z,20.20
2023-09-24T16:01:21.771Z,20.20
2023-09-24T16:03:48.830Z,20.10
2023-09-24T16:06:15.970Z,20.10
2023-09-24T16:08:44.688Z,20.00
2023-09-24T16:11:11.433Z,19.90
2023-09-24T16:13:38.205Z,19.90
2023-09-24T16:16:05.331Z,19.90
2023-09-24T16:18:32.506Z,19.80
2023-09-24T16:20:59.370Z,19.70
2023-09-24T16:23:26.173Z,19.70
2023-09-24T16:25:54.244Z,19.70
2023-09-24T16:28:21.046Z,19.60
2023-09-24T16:30:47.809Z,19.60
2023-09-24T16:33:14.627Z,19.50
2023-09-24T16:35:41.497Z,19.40
2023-09-24T16:38:08.318Z,19.40
2023-09-24T16:40:35.134Z,19.30
2023-09-24T16:43:03.481Z,19.30
2023-09-24T16:45:30.318Z,19.20
2023-09-24T16:47:58.462Z,19.10
2023-09-24T16:50:25.213Z,19.00
2023-09-24T16:52:51.996Z,18.90
2023-09-24T16:55:18.743Z,18.80
2023-09-24T16:57:46.128Z,18.70
2023-09-24T17:00:15.865Z,18.60
2023-09-24T17:02:45.836Z,18.40
2023-09-24T17:05:12.905Z,18.30
2023-09-24T17:07:39.710Z,18.10
2023-09-24T17:10:07.479Z,18.00
2023-09-24T17:12:34.359Z,17.80
2023-09-24T17:15:01.184Z,17.70
2023-09-24T17:17:29.318Z,17.60
2023-09-24T17:19:56.087Z,17.50
2023-09-24T17:22:22.940Z,17.30
2023-09-24T17:24:50.402Z,17.20
2023-09-24T17:27:17.392Z,17.10
2023-09-24T17:29:44.203Z,16.90
2023-09-24T17:32:10.978Z,16.80
2023-09-24T17:34:39.041Z,16.70
2023-09-24T17:37:05.762Z,16.60
2023-09-24T17:39:32.594Z,16.40
2023-09-24T17:41:59.501Z,16.30
2023-09-24T17:44:26.291Z,16.20
2023-09-24T17:46:53.354Z,16.10
2023-09-24T17:49:20.162Z,16.00
2023-09-24T17:51:48.331Z,16.00
2023-09-24T17:54:15.120Z,15.90
2023-09-24T17:56:42.052Z,15.80
2023-09-24T17:59:09.192Z,15.80
2023-09-24T18:01:36.125Z,15.70
2023-09-24T18:04:03.081Z,15.70
2023-09-24T18:06:30.003Z,15.60
2023-09-24T18:08:58.229Z,15.60
2023-09-24T18:11:25.090Z,15.50
2023-09-24T18:13:53.633Z,15.50
2023-09-24T18:16:21.824Z,15.40
2023-09-24T18:18:48.689Z,15.30
2023-09-24T18:21:15.483Z,15.20
2023-09-24T18:23:42.674Z,15.10
2023-09-24T18:26:10.746Z,15.00
2023-09-24T18:28:37.538Z,14.90
2023-09-24T18:31:04.412Z,14.80
2023-09-24T18:33:31.334Z,14.70
2023-09-24T18:35:59.050Z,14.60
2023-09-24T18:38:26.267Z,14.60
2023-09-24T18:40:53.530Z,14.50
2023-09-24T18:43:21.838Z,14.40
2023-09-24T18:45:48.574Z,14.30
2023-09-24T18:48:15.832Z,14.30
2023-09-24T18:50:42.729Z,14.20
2023-09-24T18:53:09.551Z,14.20
2023-09-24T18:55:36.349Z,14.10
2023-09-24T18:58:03.523Z,14.10
2023-09-24T19:00:31.908Z,14.00
2023-09-24T19:02:58.963Z,14.00
2023-09-24T19:05:25.795Z,13.90
2023-09-24T19:07:52.551Z,13.90
2023-09-24T19:10:19.320Z,13.90
2023-09-24T19:12:47.492Z,13.90
2023-09-24T19:15:15.862Z,13.80
2023-09-24T19:17:44.581Z,13.80
2023-09-24T19:20:12.619Z,13.90
2023-09-24T19:22:39.416Z,13.80
2023-09-24T19:25:06.950Z,13.80
2023-09-24T19:27:33.713Z,13.90
2023-09-24T19:30:01.007Z,13.90
2023-09-24T19:32:28.635Z,13.90
2023-09-24T19:34:56.862Z,13.80
2023-09-24T19:37:23.770Z,13.70
2023-09-24T19:39:50.652Z,13.70
2023-09-24T19:42:17.582Z,13.60
2023-09-24T19:44:44.487Z,13.60
2023-09-24T19:47:14.844Z,13.70
2023-09-24T19:49:43.108Z,13.60
2023-09-24T19:52:11.251Z,13.70
2023-09-24T19:54:38.254Z,13.70
2023-09-24T19:57:05.270Z,13.70
2023-09-24T19:59:33.015Z,13.80
2023-09-24T20:01:59.973Z,13.80
2023-09-24T20:04:26.806Z,13.90
2023-09-24T20:06:53.699Z,13.90
2023-09-24T20:09:23.484Z,13.90
2023-09-24T20:11:50.261Z,13.90
2023-09-24T20:14:18.295Z,14.00
2023-09-24T20:16:45.250Z,13.90
2023-09-24T20:19:12.449Z,13.90
2023-09-24T20:21:39.271Z,13.90
2023-09-24T20:24:06.768Z,13.90
2023-09-24T20:26:38.440Z,14.00
2023-09-24T20:29:05.213Z,14.00
2023-09-24T20:31:32.009Z,14.00
2023-09-24T20:34:01.764Z,14.00
2023-09-24T20:36:29.100Z,14.00
2023-09-24T20:38:57.897Z,13.90
2023-09-24T20:41:24.932Z,13.90
2023-09-24T20:43:53.076Z,13.90
2023-09-24T20:46:19.944Z,13.90
2023-09-24T20:48:47.008Z,13.90
2023-09-24T20:51:14.063Z,13.90
2023-09-24T20:53:41.138Z,13.90
2023-09-24T20:56:08.084Z,13.80
2023-09-24T20:58:34.934Z,13.80
2023-09-24T21:01:04.648Z,13.80
2023-09-24T21:03:31.770Z,13.80
2023-09-24T21:05:58.598Z,13.70
2023-09-24T21:08:25.414Z,13.70
2023-09-24T21:10:52.185Z,13.60
2023-09-24T21:13:19.408Z,13.60
2023-09-24T21:15:46.289Z,13.60
2023-09-24T21:18:14.890Z,13.50
2023-09-24T21:20:41.767Z,13.50
2023-09-24T21:23:08.502Z,13.50
2023-09-24T21:25:35.288Z,13.40
2023-09-24T21:28:02.054Z,13.40
2023-09-24T21:30:28.930Z,13.40
2023-09-24T21:32:55.857Z,13.30
2023-09-24T21:35:24.152Z,13.30
2023-09-24T21:37:50.924Z,13.30
2023-09-24T21:40:17.634Z,13.20
2023-09-24T21:42:44.426Z,13.10
2023-09-24T21:45:11.412Z,13.10
2023-09-24T21:47:38.197Z,13.00
2023-09-24T21:50:05.841Z,12.90
2023-09-24T21:52:33.975Z,12.90
2023-09-24T21:55:00.995Z,12.90
2023-09-24T21:57:27.929Z,12.80
2023-09-24T21:59:54.708Z,12.90
2023-09-24T22:02:21.561Z,12.90
2023-09-24T22:04:48.598Z,12.80
2023-09-24T22:07:15.580Z,12.90
2023-09-24T22:09:43.674Z,12.90
2023-09-24T22:12:10.467Z,12.90
2023-09-24T22:14:37.205Z,12.90
2023-09-24T22:17:03.960Z,12.90
2023-09-24T22:19:30.925Z,12.90
2023-09-24T22:21:57.627Z,12.80
2023-09-24T22:24:24.433Z,12.70
2023-09-24T22:26:52.627Z,12.70
2023-09-24T22:29:19.350Z,12.60
2023-09-24T22:31:46.134Z,12.50
2023-09-24T22:34:12.862Z,12.50
2023-09-24T22:36:39.640Z,12.50
2023-09-24T22:39:06.509Z,12.40
2023-09-24T22:41:33.346Z,12.40
2023-09-24T22:44:01.439Z,12.40
2023-09-24T22:46:28.322Z,12.30
2023-09-24T22:48:55.202Z,12.30
2023-09-24T22:51:22.119Z,12.20
2023-09-24T22:53:49.460Z,12.20
2023-09-24T22:56:16.188Z,12.20
2023-09-24T22:58:42.959Z,12.20
2023-09-24T23:01:11.086Z,12.20
2023-09-24T23:03:38.052Z,12.20
2023-09-24T23:06:05.175Z,12.30
2023-09-24T23:08:31.993Z,12.30
2023-09-24T23:10:58.812Z,12.30
2023-09-24T23:13:25.621Z,12.30
2023-09-24T23:15:52.445Z,12.30
2023-09-24T23:18:20.637Z,12.30
2023-09-24T23:20:47.414Z,12.30
2023-09-24T23:23:14.270Z,12.20
2023-09-24T23:25:44.315Z,12.20
2023-09-24T23:28:11.234Z,12.20
2023-09-24T23:30:38.101Z,12.20
2023-09-24T23:33:05.535Z,12.20
2023-09-24T23:35:33.651Z,12.20
2023-09-24T23:38:00.608Z,12.20
2023-09-24T23:40:27.409Z,12.20
2023-09-24T23:42:54.162Z,12.20
2023-09-24T23:45:21.001Z,12.20
2023-09-24T23:47:47.929Z,12.20
2023-09-24T23:50:14.807Z,12.10
2023-09-24T23:52:42.987Z,12.10
2023-09-24T23:55:10.118Z,12.10
2023-09-24T23:57:36.977Z,12.20
